sensor_id;sensor_type;location;lat;lon;timestamp;pressure;altitude;pressure_sealevel;temperature;humidity
59650;BME280;46162;57.568;25.814;2022-10-31T00:01:38;100986.63;;;-0.79;100.00
59650;BME280;46162;57.568;25.814;2022-10-31T00:04:07;100991.22;;;-0.83;100.00
59650;BME280;46162;57.568;25.814;2022-10-31T00:06:37;100994.81;;;-0.84;100.00
59650;BME280;46162;57.568;25.814;2022-10-31T00:09:06;101006.28;;;-0.83;100.00
59650;BME280;46162;57.568;25.814;2022-10-31T00:11:34;101006.28;;;-0.83;100.00
59650;BME280;46162;57.568;25.814;2022-10-31T00:14:03;101009.97;;;-0.88;100.00
59650;BME280;46162;57.568;25.814;2022-10-31T00:16:31;101014.28;;;-0.85;100.00
59650;BME280;46162;57.568;25.814;2022-10-31T00:19:03;101007.97;;;-0.82;100.00
59650;BME280;46162;57.568;25.814;2022-10-31T00:21:32;101015.88;;;-0.81;100.00
59650;BME280;46162;57.568;25.814;2022-10-31T00:24:03;101012.28;;;-0.80;100.00
59650;BME280;46162;57.568;25.814;2022-10-31T00:26:32;101006.97;;;-0.80;100.00
59650;BME280;46162;57.568;25.814;2022-10-31T00:29:01;101005.25;;;-0.81;100.00
59650;BME280;46162;57.568;25.814;2022-10-31T00:31:30;101007.91;;;-0.81;100.00
59650;BME280;46162;57.568;25.814;2022-10-31T00:34:00;101006.81;;;-0.77;100.00
59650;BME280;46162;57.568;25.814;2022-10-31T00:36:30;101016.56;;;-0.77;100.00
59650;BME280;46162;57.568;25.814;2022-10-31T00:38:58;101021.72;;;-0.74;100.00
59650;BME280;46162;57.568;25.814;2022-10-31T00:41:29;101014.72;;;-0.75;100.00
59650;BME280;46162;57.568;25.814;2022-10-31T00:43:58;101013.78;;;-0.74;100.00
59650;BME280;46162;57.568;25.814;2022-10-31T00:46:27;101013.88;;;-0.76;100.00
59650;BME280;46162;57.568;25.814;2022-10-31T00:48:55;101011.69;;;-0.68;100.00
59650;BME280;46162;57.568;25.814;2022-10-31T00:51:25;101008.00;;;-0.63;100.00
59650;BME280;46162;57.568;25.814;2022-10-31T00:53:54;101011.28;;;-0.58;100.00
59650;BME280;46162;57.568;25.814;2022-10-31T00:56:23;101015.16;;;-0.66;100.00
59650;BME280;46162;57.568;25.814;2022-10-31T00:58:53;101023.25;;;-0.69;100.00
59650;BME280;46162;57.568;25.814;2022-10-31T01:01:21;101014.56;;;-0.72;100.00
59650;BME280;46162;57.568;25.814;2022-10-31T01:03:50;101016.31;;;-0.71;100.00
59650;BME280;46162;57.568;25.814;2022-10-31T01:06:19;101025.25;;;-0.74;100.00
59650;BME280;46162;57.568;25.814;2022-10-31T01:08:48;101025.91;;;-0.69;100.00
59650;BME280;46162;57.568;25.814;2022-10-31T01:11:20;101023.16;;;-0.67;100.00
59650;BME280;46162;57.568;25.814;2022-10-31T01:13:51;101027.63;;;-0.68;100.00
59650;BME280;46162;57.568;25.814;2022-10-31T01:16:24;101026.59;;;-0.65;100.00
59650;BME280;46162;57.568;25.814;2022-10-31T01:18:53;101023.09;;;-0.66;100.00
59650;BME280;46162;57.568;25.814;2022-10-31T01:21:23;101023.16;;;-0.67;100.00
59650;BME280;46162;57.568;25.814;2022-10-31T01:23:53;101015.72;;;-0.59;100.00
59650;BME280;46162;57.568;25.814;2022-10-31T01:26:24;101017.06;;;-0.50;100.00
59650;BME280;46162;57.568;25.814;2022-10-31T01:28:54;101019.56;;;-0.47;100.00
59650;BME280;46162;57.568;25.814;2022-10-31T01:31:26;101021.63;;;-0.35;100.00
59650;BME280;46162;57.568;25.814;2022-10-31T01:33:56;101028.38;;;-0.28;100.00
59650;BME280;46162;57.568;25.814;2022-10-31T01:36:26;101029.78;;;-0.20;100.00
59650;BME280;46162;57.568;25.814;2022-10-31T01:38:57;101028.72;;;-0.16;100.00
59650;BME280;46162;57.568;25.814;2022-10-31T01:41:27;101027.88;;;-0.17;100.00
59650;BME280;46162;57.568;25.814;2022-10-31T01:43:58;101034.88;;;-0.16;100.00
59650;BME280;46162;57.568;25.814;2022-10-31T01:46:31;101030.47;;;-0.34;100.00
59650;BME280;46162;57.568;25.814;2022-10-31T01:49:03;101031.38;;;-0.35;100.00
59650;BME280;46162;57.568;25.814;2022-10-31T01:51:34;101041.94;;;-0.53;100.00
59650;BME280;46162;57.568;25.814;2022-10-31T01:54:09;101041.56;;;-0.45;100.00
59650;BME280;46162;57.568;25.814;2022-10-31T01:56:42;101036.63;;;-0.34;100.00
59650;BME280;46162;57.568;25.814;2022-10-31T01:59:15;101037.97;;;-0.25;100.00
59650;BME280;46162;57.568;25.814;2022-10-31T02:01:47;101046.94;;;-0.28;100.00
59650;BME280;46162;57.568;25.814;2022-10-31T02:04:19;101053.13;;;-0.27;100.00
59650;BME280;46162;57.568;25.814;2022-10-31T02:06:51;101053.03;;;-0.45;100.00
59650;BME280;46162;57.568;25.814;2022-10-31T02:09:23;101056.31;;;-0.57;100.00
59650;BME280;46162;57.568;25.814;2022-10-31T02:11:52;101058.88;;;-0.55;100.00
59650;BME280;46162;57.568;25.814;2022-10-31T02:14:22;101067.69;;;-0.55;100.00
59650;BME280;46162;57.568;25.814;2022-10-31T02:16:53;101068.13;;;-0.64;100.00
59650;BME280;46162;57.568;25.814;2022-10-31T02:19:27;101076.94;;;-0.63;100.00
59650;BME280;46162;57.568;25.814;2022-10-31T02:22:04;101072.78;;;-0.69;100.00
59650;BME280;46162;57.568;25.814;2022-10-31T02:24:44;101071.84;;;-0.68;100.00
59650;BME280;46162;57.568;25.814;2022-10-31T02:27:34;101070.69;;;-0.62;100.00
59650;BME280;46162;57.568;25.814;2022-10-31T02:30:14;101075.50;;;-0.52;100.00
59650;BME280;46162;57.568;25.814;2022-10-31T02:35:57;101077.06;;;-0.10;100.00
59650;BME280;46162;57.568;25.814;2022-10-31T02:38:38;101084.78;;;-0.05;100.00
59650;BME280;46162;57.568;25.814;2022-10-31T02:41:19;101087.44;;;-0.05;100.00
59650;BME280;46162;57.568;25.814;2022-10-31T02:44:00;101091.19;;;-0.28;100.00
59650;BME280;46162;57.568;25.814;2022-10-31T02:46:34;101098.44;;;-0.32;100.00
59650;BME280;46162;57.568;25.814;2022-10-31T02:49:10;101094.50;;;-0.42;100.00
59650;BME280;46162;57.568;25.814;2022-10-31T02:51:43;101096.50;;;-0.47;100.00
59650;BME280;46162;57.568;25.814;2022-10-31T02:54:21;101096.59;;;-0.49;100.00
59650;BME280;46162;57.568;25.814;2022-10-31T02:56:56;101093.50;;;-0.58;100.00
59650;BME280;46162;57.568;25.814;2022-10-31T02:59:28;101093.50;;;-0.58;100.00
59650;BME280;46162;57.568;25.814;2022-10-31T03:02:05;101086.38;;;-0.58;100.00
59650;BME280;46162;57.568;25.814;2022-10-31T03:04:45;101095.19;;;-0.57;100.00
59650;BME280;46162;57.568;25.814;2022-10-31T03:07:27;101099.66;;;-0.58;100.00
59650;BME280;46162;57.568;25.814;2022-10-31T03:10:03;101096.09;;;-0.57;100.00
59650;BME280;46162;57.568;25.814;2022-10-31T03:12:38;101100.44;;;-0.56;100.00
59650;BME280;46162;57.568;25.814;2022-10-31T03:15:17;101108.59;;;-0.60;100.00
59650;BME280;46162;57.568;25.814;2022-10-31T03:17:54;101107.97;;;-0.66;100.00
59650;BME280;46162;57.568;25.814;2022-10-31T03:20:30;101101.81;;;-0.66;100.00
59650;BME280;46162;57.568;25.814;2022-10-31T03:23:05;101107.81;;;-0.62;100.00
59650;BME280;46162;57.568;25.814;2022-10-31T03:25:36;101109.81;;;-0.68;100.00
59650;BME280;46162;57.568;25.814;2022-10-31T03:28:08;101110.47;;;-0.62;100.00
59650;BME280;46162;57.568;25.814;2022-10-31T03:30:41;101113.19;;;-0.64;100.00
59650;BME280;46162;57.568;25.814;2022-10-31T03:33:15;101114.34;;;-0.51;100.00
59650;BME280;46162;57.568;25.814;2022-10-31T03:35:46;101117.34;;;-0.58;100.00
59650;BME280;46162;57.568;25.814;2022-10-31T03:38:20;101115.75;;;-0.62;100.00
59650;BME280;46162;57.568;25.814;2022-10-31T03:40:53;101120.28;;;-0.65;100.00
59650;BME280;46162;57.568;25.814;2022-10-31T03:43:28;101116.41;;;-0.57;100.00
59650;BME280;46162;57.568;25.814;2022-10-31T03:45:58;101123.38;;;-0.55;100.00
59650;BME280;46162;57.568;25.814;2022-10-31T03:48:27;101131.06;;;-0.49;100.00
59650;BME280;46162;57.568;25.814;2022-10-31T03:50:59;101119.44;;;-0.46;100.00
59650;BME280;46162;57.568;25.814;2022-10-31T03:53:37;101120.31;;;-0.27;100.00
59650;BME280;46162;57.568;25.814;2022-10-31T03:56:11;101126.28;;;-0.22;100.00
59650;BME280;46162;57.568;25.814;2022-10-31T03:58:45;101124.97;;;-0.13;100.00
59650;BME280;46162;57.568;25.814;2022-10-31T04:01:16;101132.56;;;-0.05;100.00
59650;BME280;46162;57.568;25.814;2022-10-31T04:03:48;101137.44;;;0.04;100.00
59650;BME280;46162;57.568;25.814;2022-10-31T04:06:18;101130.41;;;0.03;100.00
59650;BME280;46162;57.568;25.814;2022-10-31T04:08:53;101138.06;;;0.09;100.00
59650;BME280;46162;57.568;25.814;2022-10-31T04:11:27;101140.66;;;0.11;100.00
59650;BME280;46162;57.568;25.814;2022-10-31T04:14:15;101135.59;;;0.24;100.00
59650;BME280;46162;57.568;25.814;2022-10-31T04:16:45;101144.75;;;0.18;100.00
59650;BME280;46162;57.568;25.814;2022-10-31T04:19:14;101148.47;;;0.14;100.00
59650;BME280;46162;57.568;25.814;2022-10-31T04:21:43;101149.25;;;0.16;100.00
59650;BME280;46162;57.568;25.814;2022-10-31T04:24:13;101145.06;;;0.29;100.00
59650;BME280;46162;57.568;25.814;2022-10-31T04:26:42;101143.56;;;0.24;100.00
59650;BME280;46162;57.568;25.814;2022-10-31T04:29:12;101149.19;;;0.17;100.00
59650;BME280;46162;57.568;25.814;2022-10-31T04:31:41;101147.41;;;0.18;100.00
59650;BME280;46162;57.568;25.814;2022-10-31T04:34:10;101158.56;;;0.25;100.00
59650;BME280;46162;57.568;25.814;2022-10-31T04:36:39;101157.94;;;0.19;100.00
59650;BME280;46162;57.568;25.814;2022-10-31T04:39:07;101165.13;;;0.17;100.00
59650;BME280;46162;57.568;25.814;2022-10-31T04:41:47;101169.94;;;0.09;100.00
59650;BME280;46162;57.568;25.814;2022-10-31T04:44:17;101163.19;;;0.02;100.00
59650;BME280;46162;57.568;25.814;2022-10-31T04:46:50;101171.94;;;0.04;100.00
59650;BME280;46162;57.568;25.814;2022-10-31T04:49:18;101176.66;;;0.16;100.00
59650;BME280;46162;57.568;25.814;2022-10-31T04:51:47;101175.75;;;0.17;100.00
59650;BME280;46162;57.568;25.814;2022-10-31T04:54:16;101179.63;;;0.10;100.00
59650;BME280;46162;57.568;25.814;2022-10-31T04:56:52;101173.03;;;0.00;100.00
59650;BME280;46162;57.568;25.814;2022-10-31T04:59:22;101178.84;;;0.08;100.00
59650;BME280;46162;57.568;25.814;2022-10-31T05:01:53;101179.84;;;0.06;100.00
59650;BME280;46162;57.568;25.814;2022-10-31T05:04:39;101181.91;;;-0.01;100.00
59650;BME280;46162;57.568;25.814;2022-10-31T05:07:08;101176.81;;;0.13;100.00
59650;BME280;46162;57.568;25.814;2022-10-31T05:09:36;101184.56;;;0.18;100.00
59650;BME280;46162;57.568;25.814;2022-10-31T05:12:07;101178.31;;;0.19;100.00
59650;BME280;46162;57.568;25.814;2022-10-31T05:14:58;101180.06;;;0.20;100.00
59650;BME280;46162;57.568;25.814;2022-10-31T05:17:47;101201.00;;;0.26;100.00
59650;BME280;46162;57.568;25.814;2022-10-31T05:20:35;101195.25;;;0.16;100.00
59650;BME280;46162;57.568;25.814;2022-10-31T05:23:26;101199.66;;;-0.02;100.00
59650;BME280;46162;57.568;25.814;2022-10-31T05:25:54;101201.72;;;-0.08;100.00
59650;BME280;46162;57.568;25.814;2022-10-31T05:28:25;101205.13;;;-0.44;100.00
59650;BME280;46162;57.568;25.814;2022-10-31T05:30:53;101207.59;;;-0.60;100.00
59650;BME280;46162;57.568;25.814;2022-10-31T05:33:22;101214.38;;;-0.73;100.00
59650;BME280;46162;57.568;25.814;2022-10-31T05:36:09;101217.47;;;-0.63;100.00
59650;BME280;46162;57.568;25.814;2022-10-31T05:38:47;101220.78;;;-0.58;100.00
59650;BME280;46162;57.568;25.814;2022-10-31T05:41:37;101215.59;;;-0.41;100.00
59650;BME280;46162;57.568;25.814;2022-10-31T05:44:27;101227.25;;;-0.45;100.00
59650;BME280;46162;57.568;25.814;2022-10-31T05:47:16;101231.84;;;-0.49;100.00
59650;BME280;46162;57.568;25.814;2022-10-31T05:50:05;101229.59;;;-0.58;100.00
59650;BME280;46162;57.568;25.814;2022-10-31T05:52:58;101232.66;;;-0.88;100.00
59650;BME280;46162;57.568;25.814;2022-10-31T05:55:34;101234.44;;;-0.88;100.00
59650;BME280;46162;57.568;25.814;2022-10-31T05:58:20;101232.97;;;-0.95;100.00
59650;BME280;46162;57.568;25.814;2022-10-31T06:01:01;101240.00;;;-0.94;100.00
59650;BME280;46162;57.568;25.814;2022-10-31T06:03:30;101243.47;;;-0.72;100.00
59650;BME280;46162;57.568;25.814;2022-10-31T06:06:02;101238.84;;;-0.67;100.00
59650;BME280;46162;57.568;25.814;2022-10-31T06:08:40;101232.59;;;-0.86;100.00
59650;BME280;46162;57.568;25.814;2022-10-31T06:11:14;101245.84;;;-0.86;100.00
59650;BME280;46162;57.568;25.814;2022-10-31T06:14:09;101245.91;;;-0.88;100.00
59650;BME280;46162;57.568;25.814;2022-10-31T06:16:51;101244.91;;;-0.85;100.00
59650;BME280;46162;57.568;25.814;2022-10-31T06:19:52;101252.63;;;-0.79;100.00
59650;BME280;46162;57.568;25.814;2022-10-31T06:22:24;101254.72;;;-0.87;100.00
59650;BME280;46162;57.568;25.814;2022-10-31T06:24:54;101264.09;;;-0.78;100.00
59650;BME280;46162;57.568;25.814;2022-10-31T06:27:28;101269.44;;;-0.80;100.00
59650;BME280;46162;57.568;25.814;2022-10-31T06:30:04;101273.75;;;-0.77;100.00
59650;BME280;46162;57.568;25.814;2022-10-31T06:32:36;101271.50;;;-0.66;100.00
59650;BME280;46162;57.568;25.814;2022-10-31T06:35:06;101278.34;;;-0.60;100.00
59650;BME280;46162;57.568;25.814;2022-10-31T06:37:35;101275.34;;;-0.53;100.00
59650;BME280;46162;57.568;25.814;2022-10-31T06:40:21;101288.41;;;-0.48;100.00
59650;BME280;46162;57.568;25.814;2022-10-31T06:43:14;101300.34;;;-0.38;100.00
59650;BME280;46162;57.568;25.814;2022-10-31T06:45:43;101294.78;;;-0.32;100.00
59650;BME280;46162;57.568;25.814;2022-10-31T06:48:35;101295.16;;;-0.20;100.00
59650;BME280;46162;57.568;25.814;2022-10-31T06:51:26;101304.72;;;-0.16;100.00
59650;BME280;46162;57.568;25.814;2022-10-31T06:53:55;101313.19;;;-0.08;100.00
59650;BME280;46162;57.568;25.814;2022-10-31T06:56:25;101312.94;;;-0.02;100.00
59650;BME280;46162;57.568;25.814;2022-10-31T06:58:55;101303.69;;;0.07;100.00
59650;BME280;46162;57.568;25.814;2022-10-31T07:01:59;101306.78;;;0.16;100.00
59650;BME280;46162;57.568;25.814;2022-10-31T07:04:30;101309.09;;;0.24;100.00
59650;BME280;46162;57.568;25.814;2022-10-31T07:06:59;101304.22;;;0.34;100.00
59650;BME280;46162;57.568;25.814;2022-10-31T07:09:27;101303.63;;;0.46;100.00
59650;BME280;46162;57.568;25.814;2022-10-31T07:12:00;101306.66;;;0.57;100.00
59650;BME280;46162;57.568;25.814;2022-10-31T07:14:30;101295.25;;;0.55;100.00
59650;BME280;46162;57.568;25.814;2022-10-31T07:17:00;101295.88;;;0.60;100.00
59650;BME280;46162;57.568;25.814;2022-10-31T07:19:37;101306.78;;;0.73;100.00
59650;BME280;46162;57.568;25.814;2022-10-31T07:22:06;101308.22;;;0.80;100.00
59650;BME280;46162;57.568;25.814;2022-10-31T07:24:35;101309.06;;;0.81;100.00
59650;BME280;46162;57.568;25.814;2022-10-31T07:27:26;101320.34;;;0.86;100.00
59650;BME280;46162;57.568;25.814;2022-10-31T07:29:55;101324.44;;;0.93;100.00
59650;BME280;46162;57.568;25.814;2022-10-31T07:32:26;101325.22;;;0.95;100.00
59650;BME280;46162;57.568;25.814;2022-10-31T07:34:58;101330.22;;;1.01;100.00
59650;BME280;46162;57.568;25.814;2022-10-31T07:37:47;101325.41;;;1.10;100.00
59650;BME280;46162;57.568;25.814;2022-10-31T07:40:16;101326.03;;;1.15;100.00
59650;BME280;46162;57.568;25.814;2022-10-31T07:42:47;101330.66;;;1.28;100.00
59650;BME280;46162;57.568;25.814;2022-10-31T07:45:54;101334.44;;;1.42;100.00
59650;BME280;46162;57.568;25.814;2022-10-31T07:48:55;101337.97;;;1.42;100.00
59650;BME280;46162;57.568;25.814;2022-10-31T07:51:57;101358.69;;;1.53;100.00
59650;BME280;46162;57.568;25.814;2022-10-31T07:54:45;101353.03;;;1.61;100.00
59650;BME280;46162;57.568;25.814;2022-10-31T07:57:21;101354.72;;;1.62;100.00
59650;BME280;46162;57.568;25.814;2022-10-31T07:59:51;101349.06;;;1.68;100.00
59650;BME280;46162;57.568;25.814;2022-10-31T08:02:22;101350.59;;;1.74;100.00
59650;BME280;46162;57.568;25.814;2022-10-31T08:05:29;101348.44;;;1.80;100.00
59650;BME280;46162;57.568;25.814;2022-10-31T08:08:32;101359.56;;;1.88;100.00
59650;BME280;46162;57.568;25.814;2022-10-31T08:11:05;101362.69;;;1.97;100.00
59650;BME280;46162;57.568;25.814;2022-10-31T08:13:34;101358.06;;;2.00;100.00
59650;BME280;46162;57.568;25.814;2022-10-31T08:16:03;101366.75;;;2.04;100.00
59650;BME280;46162;57.568;25.814;2022-10-31T08:18:39;101378.59;;;2.15;100.00
59650;BME280;46162;57.568;25.814;2022-10-31T08:21:12;101367.13;;;2.13;100.00
59650;BME280;46162;57.568;25.814;2022-10-31T08:23:45;101374.91;;;2.18;100.00
59650;BME280;46162;57.568;25.814;2022-10-31T08:26:14;101363.91;;;2.24;100.00
59650;BME280;46162;57.568;25.814;2022-10-31T08:28:43;101371.03;;;2.24;100.00
59650;BME280;46162;57.568;25.814;2022-10-31T08:31:12;101363.59;;;2.30;100.00
59650;BME280;46162;57.568;25.814;2022-10-31T08:33:41;101368.56;;;2.36;100.00
59650;BME280;46162;57.568;25.814;2022-10-31T08:36:44;101367.38;;;2.42;100.00
59650;BME280;46162;57.568;25.814;2022-10-31T08:39:26;101362.41;;;2.52;100.00
59650;BME280;46162;57.568;25.814;2022-10-31T08:41:54;101363.00;;;2.57;100.00
59650;BME280;46162;57.568;25.814;2022-10-31T08:44:23;101363.66;;;2.62;100.00
59650;BME280;46162;57.568;25.814;2022-10-31T08:46:52;101361.72;;;2.64;100.00
59650;BME280;46162;57.568;25.814;2022-10-31T08:49:22;101369.47;;;2.69;100.00
59650;BME280;46162;57.568;25.814;2022-10-31T08:51:51;101375.59;;;2.71;100.00
59650;BME280;46162;57.568;25.814;2022-10-31T08:54:20;101378.94;;;2.74;100.00
59650;BME280;46162;57.568;25.814;2022-10-31T08:56:56;101381.09;;;2.84;100.00
59650;BME280;46162;57.568;25.814;2022-10-31T08:59:43;101384.84;;;2.97;100.00
59650;BME280;46162;57.568;25.814;2022-10-31T09:02:12;101380.00;;;3.04;100.00
59650;BME280;46162;57.568;25.814;2022-10-31T09:04:41;101385.84;;;3.10;100.00
59650;BME280;46162;57.568;25.814;2022-10-31T09:07:10;101398.22;;;3.11;100.00
59650;BME280;46162;57.568;25.814;2022-10-31T09:09:47;101393.22;;;3.21;100.00
59650;BME280;46162;57.568;25.814;2022-10-31T09:12:19;101393.56;;;3.31;100.00
59650;BME280;46162;57.568;25.814;2022-10-31T09:15:07;101388.94;;;3.34;100.00
59650;BME280;46162;57.568;25.814;2022-10-31T09:17:54;101394.88;;;3.39;100.00
59650;BME280;46162;57.568;25.814;2022-10-31T09:20:37;101396.31;;;3.45;100.00
59650;BME280;46162;57.568;25.814;2022-10-31T09:23:07;101396.31;;;3.45;100.00
59650;BME280;46162;57.568;25.814;2022-10-31T09:25:38;101401.56;;;3.47;100.00
59650;BME280;46162;57.568;25.814;2022-10-31T09:28:37;101403.78;;;3.54;100.00
59650;BME280;46162;57.568;25.814;2022-10-31T09:31:13;101397.31;;;3.58;100.00
59650;BME280;46162;57.568;25.814;2022-10-31T09:34:01;101400.31;;;3.68;100.00
59650;BME280;46162;57.568;25.814;2022-10-31T09:36:36;101402.97;;;3.68;100.00
59650;BME280;46162;57.568;25.814;2022-10-31T09:39:08;101399.63;;;3.64;100.00
59650;BME280;46162;57.568;25.814;2022-10-31T09:42:07;101399.56;;;3.66;100.00
59650;BME280;46162;57.568;25.814;2022-10-31T09:44:49;101398.53;;;3.69;100.00
59650;BME280;46162;57.568;25.814;2022-10-31T09:47:36;101396.00;;;3.65;100.00
59650;BME280;46162;57.568;25.814;2022-10-31T09:50:31;101397.56;;;3.70;100.00
59650;BME280;46162;57.568;25.814;2022-10-31T09:53:29;101390.31;;;3.72;100.00
59650;BME280;46162;57.568;25.814;2022-10-31T09:55:59;101397.78;;;3.81;100.00
59650;BME280;46162;57.568;25.814;2022-10-31T09:58:29;101398.38;;;3.86;100.00
59650;BME280;46162;57.568;25.814;2022-10-31T10:01:06;101393.03;;;3.86;100.00
59650;BME280;46162;57.568;25.814;2022-10-31T10:03:43;101392.16;;;3.85;100.00
59650;BME280;46162;57.568;25.814;2022-10-31T10:06:34;101395.72;;;3.86;100.00
59650;BME280;46162;57.568;25.814;2022-10-31T10:09:30;101393.44;;;3.94;100.00
59650;BME280;46162;57.568;25.814;2022-10-31T10:12:26;101402.81;;;4.01;100.00
59650;BME280;46162;57.568;25.814;2022-10-31T10:15:19;101397.06;;;4.07;100.00
59650;BME280;46162;57.568;25.814;2022-10-31T10:18:02;101403.94;;;3.97;100.00
59650;BME280;46162;57.568;25.814;2022-10-31T10:20:38;101413.22;;;4.06;100.00
59650;BME280;46162;57.568;25.814;2022-10-31T10:23:29;101408.34;;;4.13;100.00
59650;BME280;46162;57.568;25.814;2022-10-31T10:26:03;101407.41;;;4.14;100.00
59650;BME280;46162;57.568;25.814;2022-10-31T10:28:38;101399.59;;;4.11;100.00
59650;BME280;46162;57.568;25.814;2022-10-31T10:31:13;101397.66;;;4.13;100.00
59650;BME280;46162;57.568;25.814;2022-10-31T10:33:53;101403.13;;;4.25;100.00
59650;BME280;46162;57.568;25.814;2022-10-31T10:36:27;101401.69;;;4.34;100.00
59650;BME280;46162;57.568;25.814;2022-10-31T10:39:00;101403.59;;;4.32;100.00
59650;BME280;46162;57.568;25.814;2022-10-31T10:41:32;101401.97;;;4.29;100.00
59650;BME280;46162;57.568;25.814;2022-10-31T10:44:01;101401.13;;;4.43;100.00
59650;BME280;46162;57.568;25.814;2022-10-31T10:46:34;101406.69;;;4.40;100.00
59650;BME280;46162;57.568;25.814;2022-10-31T10:49:32;101416.41;;;4.41;100.00
59650;BME280;46162;57.568;25.814;2022-10-31T10:52:08;101417.66;;;4.36;100.00
59650;BME280;46162;57.568;25.814;2022-10-31T10:55:07;101410.28;;;4.39;100.00
59650;BME280;46162;57.568;25.814;2022-10-31T10:57:48;101415.94;;;4.49;100.00
59650;BME280;46162;57.568;25.814;2022-10-31T11:00:22;101416.44;;;4.56;100.00
59650;BME280;46162;57.568;25.814;2022-10-31T11:02:51;101417.34;;;4.55;100.00
59650;BME280;46162;57.568;25.814;2022-10-31T11:05:40;101416.22;;;4.59;100.00
59650;BME280;46162;57.568;25.814;2022-10-31T11:08:23;101418.06;;;4.58;100.00
59650;BME280;46162;57.568;25.814;2022-10-31T11:10:59;101413.75;;;4.56;100.00
59650;BME280;46162;57.568;25.814;2022-10-31T11:13:29;101419.19;;;4.54;100.00
59650;BME280;46162;57.568;25.814;2022-10-31T11:16:00;101425.38;;;4.55;100.00
59650;BME280;46162;57.568;25.814;2022-10-31T11:18:32;101426.72;;;4.62;100.00
59650;BME280;46162;57.568;25.814;2022-10-31T11:21:04;101421.38;;;4.62;100.00
59650;BME280;46162;57.568;25.814;2022-10-31T11:23:33;101421.19;;;4.65;100.00
59650;BME280;46162;57.568;25.814;2022-10-31T11:26:03;101428.91;;;4.69;100.00
59650;BME280;46162;57.568;25.814;2022-10-31T11:28:33;101422.06;;;4.65;100.00
59650;BME280;46162;57.568;25.814;2022-10-31T11:31:07;101418.22;;;4.69;100.00
59650;BME280;46162;57.568;25.814;2022-10-31T11:33:38;101422.06;;;4.65;100.00
59650;BME280;46162;57.568;25.814;2022-10-31T11:36:18;101425.31;;;4.70;100.00
59650;BME280;46162;57.568;25.814;2022-10-31T11:38:50;101413.63;;;4.71;100.00
59650;BME280;46162;57.568;25.814;2022-10-31T11:41:25;101408.22;;;4.73;100.00
59650;BME280;46162;57.568;25.814;2022-10-31T11:43:56;101402.09;;;4.71;100.00
59650;BME280;46162;57.568;25.814;2022-10-31T11:46:34;101405.13;;;4.79;100.00
59650;BME280;46162;57.568;25.814;2022-10-31T11:49:05;101405.91;;;4.81;100.00
59650;BME280;46162;57.568;25.814;2022-10-31T11:51:41;101401.69;;;4.77;100.00
59650;BME280;46162;57.568;25.814;2022-10-31T11:54:19;101406.16;;;4.91;100.00
59650;BME280;46162;57.568;25.814;2022-10-31T11:56:49;101398.06;;;4.92;100.00
59650;BME280;46162;57.568;25.814;2022-10-31T11:59:26;101391.66;;;4.95;100.00
59650;BME280;46162;57.568;25.814;2022-10-31T12:01:57;101384.75;;;4.91;100.00
59650;BME280;46162;57.568;25.814;2022-10-31T12:04:38;101387.63;;;5.02;100.00
59650;BME280;46162;57.568;25.814;2022-10-31T12:07:10;101394.88;;;5.00;100.00
59650;BME280;46162;57.568;25.814;2022-10-31T12:09:39;101394.22;;;4.96;100.00
59650;BME280;46162;57.568;25.814;2022-10-31T12:12:27;101386.59;;;4.90;100.00
59650;BME280;46162;57.568;25.814;2022-10-31T12:15:11;101389.81;;;4.95;100.00
59650;BME280;46162;57.568;25.814;2022-10-31T12:17:49;101396.31;;;4.91;100.00
59650;BME280;46162;57.568;25.814;2022-10-31T12:20:28;101395.69;;;4.88;100.00
59650;BME280;46162;57.568;25.814;2022-10-31T12:23:06;101391.91;;;5.05;100.00
59650;BME280;46162;57.568;25.814;2022-10-31T12:25:44;101397.28;;;5.05;100.00
59650;BME280;46162;57.568;25.814;2022-10-31T12:31:29;101402.25;;;4.96;100.00
59650;BME280;46162;57.568;25.814;2022-10-31T12:34:16;101399.47;;;4.98;100.00
59650;BME280;46162;57.568;25.814;2022-10-31T12:36:56;101394.41;;;4.93;100.00
59650;BME280;46162;57.568;25.814;2022-10-31T12:39:38;101399.19;;;5.03;100.00
59650;BME280;46162;57.568;25.814;2022-10-31T12:42:18;101392.31;;;4.99;100.00
59650;BME280;46162;57.568;25.814;2022-10-31T12:45:07;101387.44;;;4.91;100.00
59650;BME280;46162;57.568;25.814;2022-10-31T12:47:49;101388.69;;;5.00;100.00
59650;BME280;46162;57.568;25.814;2022-10-31T12:50:28;101395.09;;;4.97;100.00
59650;BME280;46162;57.568;25.814;2022-10-31T12:53:18;101394.94;;;5.13;100.00
59650;BME280;46162;57.568;25.814;2022-10-31T12:55:58;101394.41;;;5.08;100.00
59650;BME280;46162;57.568;25.814;2022-10-31T12:58:34;101401.84;;;5.17;100.00
59650;BME280;46162;57.568;25.814;2022-10-31T13:01:09;101393.19;;;5.26;100.00
59650;BME280;46162;57.568;25.814;2022-10-31T13:03:46;101395.59;;;5.16;100.00
59650;BME280;46162;57.568;25.814;2022-10-31T13:06:19;101400.66;;;5.21;100.00
59650;BME280;46162;57.568;25.814;2022-10-31T13:08:52;101400.66;;;5.21;100.00
59650;BME280;46162;57.568;25.814;2022-10-31T13:11:27;101401.94;;;5.15;100.00
59650;BME280;46162;57.568;25.814;2022-10-31T13:14:04;101406.97;;;5.20;100.00
59650;BME280;46162;57.568;25.814;2022-10-31T13:16:37;101405.25;;;5.19;100.00
59650;BME280;46162;57.568;25.814;2022-10-31T13:19:12;101406.22;;;5.18;100.00
59650;BME280;46162;57.568;25.814;2022-10-31T13:21:53;101398.19;;;5.18;100.00
59650;BME280;46162;57.568;25.814;2022-10-31T13:24:30;101399.53;;;5.11;100.00
59650;BME280;46162;57.568;25.814;2022-10-31T13:27:07;101401.22;;;5.26;100.00